createdAt,value
2023-01-29T00:03:46.655Z,3.60
2023-01-29T00:08:49.091Z,3.30
2023-01-29T00:13:52.698Z,4.15
2023-01-29T00:18:55.316Z,3.95
2023-01-29T00:23:58.173Z,5.75
2023-01-29T00:29:03.639Z,3.70
2023-01-29T00:34:06.128Z,4.25
2023-01-29T00:39:11.155Z,3.45
2023-01-29T00:44:32.582Z,3.63
2023-01-29T00:49:39.215Z,3.70
2023-01-29T00:54:41.671Z,3.70
2023-01-29T00:59:44.541Z,2.83
2023-01-29T01:04:47.080Z,3.50
2023-01-29T01:10:07.879Z,2.65
2023-01-29T01:15:10.844Z,2.85
2023-01-29T01:20:14.318Z,3.80
2023-01-29T01:25:19.129Z,2.80
2023-01-29T01:30:22.293Z,3.00
2023-01-29T01:35:24.783Z,3.97
2023-01-29T01:40:27.569Z,3.70
2023-01-29T01:45:33.342Z,3.50
2023-01-29T01:51:03.537Z,3.65
2023-01-29T01:56:10.287Z,3.17
2023-01-29T02:01:13.724Z,2.88
2023-01-29T02:06:34.817Z,2.58
2023-01-29T02:11:38.767Z,3.15
2023-01-29T02:16:41.288Z,3.72
2023-01-29T02:22:28.619Z,3.20
2023-01-29T02:27:44.890Z,2.67
2023-01-29T02:33:02.673Z,2.80
2023-01-29T02:38:29.386Z,2.95
2023-01-29T02:43:48.148Z,3.08
2023-01-29T02:49:00.514Z,2.67
2023-01-29T02:54:20.884Z,3.28
2023-01-29T02:59:34.606Z,2.85
2023-01-29T03:04:46.769Z,2.92
2023-01-29T03:09:53.294Z,3.05
2023-01-29T03:15:14.525Z,2.58
2023-01-29T03:20:29.756Z,3.35
2023-01-29T03:25:53.824Z,2.78
2023-01-29T03:31:21.118Z,3.20
2023-01-29T03:36:45.673Z,2.33
2023-01-29T03:42:11.964Z,2.53
2023-01-29T03:47:27.418Z,2.95
2023-01-29T03:53:02.238Z,1.95
2023-01-29T03:58:35.342Z,2.97
2023-01-29T04:03:42.488Z,4.10
2023-01-29T04:08:56.323Z,4.05
2023-01-29T04:13:59.894Z,3.58
2023-01-29T04:19:03.077Z,4.20
2023-01-29T04:24:13.872Z,3.15
2023-01-29T04:29:31.073Z,3.35
2023-01-29T04:35:23.134Z,3.60
2023-01-29T04:40:51.286Z,3.90
2023-01-29T04:46:41.146Z,4.78
2023-01-29T04:51:55.459Z,3.83
2023-01-29T04:57:04.673Z,3.20
2023-01-29T05:02:10.904Z,4.25
2023-01-29T05:07:16.393Z,3.75
2023-01-29T05:12:19.448Z,2.85
2023-01-29T05:17:22.117Z,3.28
2023-01-29T05:22:25.020Z,4.40
2023-01-29T05:27:53.515Z,3.40
2023-01-29T05:32:55.939Z,3.42
2023-01-29T05:37:58.953Z,3.47
2023-01-29T05:43:01.706Z,3.65
2023-01-29T05:48:04.373Z,3.35
2023-01-29T05:53:06.775Z,2.92
2023-01-29T05:58:09.235Z,3.38
2023-01-29T06:03:11.742Z,4.55
2023-01-29T06:08:14.248Z,3.42
2023-01-29T06:13:16.699Z,4.50
2023-01-29T06:18:19.376Z,3.55
2023-01-29T06:23:21.827Z,3.28
2023-01-29T06:28:24.469Z,3.78
2023-01-29T06:33:26.988Z,2.75
2023-01-29T06:38:30.263Z,4.63
2023-01-29T06:43:32.756Z,4.05
2023-01-29T06:48:35.779Z,4.53
2023-01-29T06:53:39.668Z,3.38
2023-01-29T06:58:43.808Z,6.07
2023-01-29T07:03:51.087Z,4.40
2023-01-29T07:08:53.556Z,3.20
2023-01-29T07:13:55.985Z,2.33
2023-01-29T07:18:58.537Z,3.67
2023-01-29T07:24:01.086Z,2.38
2023-01-29T07:29:05.446Z,2.70
2023-01-29T07:34:07.917Z,3.03
2023-01-29T07:39:10.372Z,3.05
2023-01-29T07:44:12.912Z,1.90
2023-01-29T07:49:15.975Z,3.15
2023-01-29T07:54:18.422Z,3.75
2023-01-29T07:59:20.889Z,3.25
2023-01-29T08:04:23.408Z,2.17
2023-01-29T08:09:25.873Z,3.33
2023-01-29T08:14:28.437Z,4.03
2023-01-29T08:19:30.962Z,3.67
2023-01-29T08:24:47.669Z,2.63
2023-01-29T08:29:56.501Z,3.35
2023-01-29T08:34:59.773Z,2.92
2023-01-29T08:40:09.797Z,3.30
2023-01-29T08:45:12.389Z,2.88
2023-01-29T08:50:16.232Z,3.47
2023-01-29T08:55:20.260Z,3.17
2023-01-29T09:00:23.847Z,4.35
2023-01-29T09:05:26.389Z,3.90
2023-01-29T09:10:28.899Z,6.13
2023-01-29T09:15:31.448Z,4.75
2023-01-29T09:20:38.151Z,4.53
2023-01-29T09:25:44.465Z,4.82
2023-01-29T09:30:47.734Z,4.53
2023-01-29T09:36:01.113Z,5.30
2023-01-29T09:41:27.708Z,4.55
2023-01-29T09:46:30.130Z,3.53
2023-01-29T09:52:01.689Z,4.35
2023-01-29T09:57:16.035Z,4.80
2023-01-29T10:03:00.084Z,4.25
2023-01-29T10:08:17.143Z,3.55
2023-01-29T10:13:19.467Z,5.07
2023-01-29T10:18:41.923Z,4.18
2023-01-29T10:23:51.200Z,3.13
2023-01-29T10:28:57.688Z,4.00
2023-01-29T10:34:27.577Z,4.18
2023-01-29T10:39:32.885Z,4.90
2023-01-29T10:44:38.311Z,3.85
2023-01-29T10:55:06.864Z,5.28
2023-01-29T11:00:24.244Z,4.22
2023-01-29T11:05:36.670Z,4.57
2023-01-29T11:10:46.482Z,3.95
2023-01-29T11:15:53.190Z,5.35
2023-01-29T11:21:05.008Z,5.28
2023-01-29T11:26:13.647Z,4.97
2023-01-29T11:31:18.573Z,4.07
2023-01-29T11:36:39.043Z,5.85
2023-01-29T11:42:13.534Z,5.35
2023-01-29T11:47:16.619Z,4.57
2023-01-29T11:52:25.357Z,4.28
2023-01-29T11:57:31.668Z,5.78
2023-01-29T12:02:39.023Z,4.68
2023-01-29T12:07:52.147Z,3.97
2023-01-29T12:13:21.637Z,5.20
2023-01-29T12:18:35.748Z,4.90
2023-01-29T12:24:07.328Z,6.30
2023-01-29T12:29:18.560Z,4.95
2023-01-29T12:34:35.028Z,6.20
2023-01-29T12:39:37.880Z,5.65
2023-01-29T12:44:49.588Z,3.28
2023-01-29T12:50:00.665Z,4.95
2023-01-29T12:55:24.675Z,4.22
2023-01-29T13:00:43.933Z,5.18
2023-01-29T13:06:03.542Z,4.13
2023-01-29T13:11:20.071Z,5.30
2023-01-29T13:16:31.301Z,4.53
2023-01-29T13:21:44.364Z,4.97
2023-01-29T13:26:50.707Z,4.75
2023-01-29T13:31:55.821Z,6.22
2023-01-29T13:37:01.953Z,5.57
2023-01-29T13:42:26.612Z,6.80
2023-01-29T13:53:02.441Z,5.18
2023-01-29T13:58:27.787Z,4.70
2023-01-29T14:03:45.037Z,5.45
2023-01-29T14:08:52.650Z,4.70
2023-01-29T14:13:55.147Z,5.35
2023-01-29T14:19:01.016Z,6.45
2023-01-29T14:24:17.686Z,4.93
2023-01-29T14:29:34.344Z,5.32
2023-01-29T14:34:49.395Z,5.55
2023-01-29T14:39:59.154Z,6.38
2023-01-29T14:45:08.273Z,6.30
2023-01-29T14:50:19.540Z,5.43
2023-01-29T14:55:57.097Z,6.38
2023-01-29T15:06:05.226Z,4.85
2023-01-29T15:11:34.130Z,6.07
2023-01-29T15:17:17.617Z,5.60
2023-01-29T15:22:29.343Z,7.03
2023-01-29T15:27:32.327Z,6.78
2023-01-29T15:32:37.860Z,9.40
2023-01-29T15:37:40.471Z,9.70
2023-01-29T15:42:48.842Z,10.70
2023-01-29T15:47:53.068Z,10.68
2023-01-29T15:53:00.474Z,11.00
2023-01-29T15:58:03.000Z,9.50
2023-01-29T16:03:18.424Z,10.82
2023-01-29T16:08:26.495Z,12.32
2023-01-29T16:13:32.099Z,11.07
2023-01-29T16:18:39.512Z,10.75
2023-01-29T16:23:51.737Z,10.70
2023-01-29T16:28:55.522Z,9.88
2023-01-29T16:33:59.701Z,9.02
2023-01-29T16:39:05.857Z,8.77
2023-01-29T16:44:17.151Z,8.98
2023-01-29T16:49:28.894Z,9.60
2023-01-29T16:54:31.416Z,7.72
2023-01-29T16:59:40.165Z,13.65
2023-01-29T17:04:43.950Z,15.82
2023-01-29T17:09:53.915Z,12.38
2023-01-29T17:15:00.559Z,7.25
2023-01-29T17:20:23.713Z,9.02
2023-01-29T17:25:28.676Z,6.55
2023-01-29T17:30:37.593Z,5.65
2023-01-29T17:35:42.525Z,8.10
2023-01-29T17:40:54.133Z,10.23
2023-01-29T17:45:56.868Z,9.68
2023-01-29T17:51:03.032Z,8.23
2023-01-29T18:01:07.914Z,8.07
2023-01-29T18:06:20.547Z,8.27
2023-01-29T18:11:23.208Z,8.05
2023-01-29T18:16:26.300Z,7.32
2023-01-29T18:21:28.790Z,8.82
2023-01-29T18:26:32.311Z,8.23
2023-01-29T18:31:34.912Z,7.00
2023-01-29T18:36:37.489Z,8.38
2023-01-29T18:41:41.123Z,7.10
2023-01-29T18:46:43.733Z,8.68
2023-01-29T18:51:46.275Z,8.18
2023-01-29T18:57:13.248Z,7.22
2023-01-29T19:02:17.714Z,7.45
2023-01-29T19:07:20.324Z,8.20
2023-01-29T19:12:23.407Z,7.47
2023-01-29T19:17:26.354Z,7.60
2023-01-29T19:22:29.794Z,7.78
2023-01-29T19:27:33.646Z,7.97
2023-01-29T19:32:36.217Z,4.45
2023-01-29T19:37:38.692Z,6.63
2023-01-29T19:42:41.532Z,6.55
2023-01-29T19:47:44.789Z,7.60
2023-01-29T19:52:51.533Z,8.35
2023-01-29T19:57:54.791Z,7.15
2023-01-29T20:02:57.231Z,8.43
2023-01-29T20:07:59.745Z,7.82
2023-01-29T20:13:06.269Z,7.57
2023-01-29T20:18:12.256Z,8.02
2023-01-29T20:23:22.285Z,6.93
